sensor_id;sensor_type;location;lat;lon;timestamp;temperature;humidity
57132;DHT22;43005;52.922;5.742;2022-07-22T00:01:02;17.80;99.90
57132;DHT22;43005;52.922;5.742;2022-07-22T00:03:29;17.80;99.90
57132;DHT22;43005;52.922;5.742;2022-07-22T00:05:55;17.80;99.90
57132;DHT22;43005;52.922;5.742;2022-07-22T00:08:22;17.80;99.90
57132;DHT22;43005;52.922;5.742;2022-07-22T00:10:50;17.80;99.90
57132;DHT22;43005;52.922;5.742;2022-07-22T00:13:17;17.80;99.90
57132;DHT22;43005;52.922;5.742;2022-07-22T00:15:43;17.80;99.90
57132;DHT22;43005;52.922;5.742;2022-07-22T00:18:10;17.90;99.90
57132;DHT22;43005;52.922;5.742;2022-07-22T00:20:37;17.90;99.90
57132;DHT22;43005;52.922;5.742;2022-07-22T00:23:03;17.90;99.90
57132;DHT22;43005;52.922;5.742;2022-07-22T00:25:30;17.80;99.90
57132;DHT22;43005;52.922;5.742;2022-07-22T00:27:58;17.80;99.90
57132;DHT22;43005;52.922;5.742;2022-07-22T00:30:25;17.80;99.90
57132;DHT22;43005;52.922;5.742;2022-07-22T00:32:52;17.80;99.90
57132;DHT22;43005;52.922;5.742;2022-07-22T00:35:18;17.80;99.90
57132;DHT22;43005;52.922;5.742;2022-07-22T00:37:45;17.80;99.90
57132;DHT22;43005;52.922;5.742;2022-07-22T00:40:12;17.70;99.90
57132;DHT22;43005;52.922;5.742;2022-07-22T00:42:39;17.70;99.90
57132;DHT22;43005;52.922;5.742;2022-07-22T00:45:07;17.80;99.90
57132;DHT22;43005;52.922;5.742;2022-07-22T00:52:45;17.80;99.90
57132;DHT22;43005;52.922;5.742;2022-07-22T00:55:12;17.80;99.90
57132;DHT22;43005;52.922;5.742;2022-07-22T00:57:39;17.80;99.90
57132;DHT22;43005;52.922;5.742;2022-07-22T01:00:09;17.80;99.90
57132;DHT22;43005;52.922;5.742;2022-07-22T01:02:36;17.80;99.90
57132;DHT22;43005;52.922;5.742;2022-07-22T01:05:04;17.90;99.90
57132;DHT22;43005;52.922;5.742;2022-07-22T01:07:31;17.80;99.90
57132;DHT22;43005;52.922;5.742;2022-07-22T01:09:57;17.80;99.90
57132;DHT22;43005;52.922;5.742;2022-07-22T01:12:24;17.80;99.90
57132;DHT22;43005;52.922;5.742;2022-07-22T01:14:51;17.80;99.90
57132;DHT22;43005;52.922;5.742;2022-07-22T01:17:19;17.90;99.90
57132;DHT22;43005;52.922;5.742;2022-07-22T01:19:46;17.90;99.90
57132;DHT22;43005;52.922;5.742;2022-07-22T01:22:14;17.90;99.90
57132;DHT22;43005;52.922;5.742;2022-07-22T01:24:41;17.90;99.90
57132;DHT22;43005;52.922;5.742;2022-07-22T01:27:07;17.90;99.90
57132;DHT22;43005;52.922;5.742;2022-07-22T01:29:34;17.90;99.90
57132;DHT22;43005;52.922;5.742;2022-07-22T01:32:01;17.80;99.90
57132;DHT22;43005;52.922;5.742;2022-07-22T01:34:27;17.90;99.90
57132;DHT22;43005;52.922;5.742;2022-07-22T01:36:54;17.90;99.90
57132;DHT22;43005;52.922;5.742;2022-07-22T01:39:22;17.90;99.90
57132;DHT22;43005;52.922;5.742;2022-07-22T01:41:49;17.90;99.90
57132;DHT22;43005;52.922;5.742;2022-07-22T01:44:15;17.90;99.90
57132;DHT22;43005;52.922;5.742;2022-07-22T01:46:42;17.90;99.90
57132;DHT22;43005;52.922;5.742;2022-07-22T01:49:09;17.90;99.90
57132;DHT22;43005;52.922;5.742;2022-07-22T01:51:35;17.90;99.90
57132;DHT22;43005;52.922;5.742;2022-07-22T01:54:02;17.90;99.90
57132;DHT22;43005;52.922;5.742;2022-07-22T01:56:30;17.90;99.90
57132;DHT22;43005;52.922;5.742;2022-07-22T01:58:57;17.90;99.90
57132;DHT22;43005;52.922;5.742;2022-07-22T02:01:24;17.80;99.90
57132;DHT22;43005;52.922;5.742;2022-07-22T02:03:50;17.80;99.90
57132;DHT22;43005;52.922;5.742;2022-07-22T02:06:17;17.80;99.90
57132;DHT22;43005;52.922;5.742;2022-07-22T02:08:44;17.80;99.90
57132;DHT22;43005;52.922;5.742;2022-07-22T02:11:11;17.80;99.90
57132;DHT22;43005;52.922;5.742;2022-07-22T02:13:39;17.70;99.90
57132;DHT22;43005;52.922;5.742;2022-07-22T02:16:05;17.80;99.90
57132;DHT22;43005;52.922;5.742;2022-07-22T02:18:32;17.70;99.90
57132;DHT22;43005;52.922;5.742;2022-07-22T02:20:59;17.70;99.90
57132;DHT22;43005;52.922;5.742;2022-07-22T02:23:25;17.70;99.90
57132;DHT22;43005;52.922;5.742;2022-07-22T02:25:52;17.80;99.90
57132;DHT22;43005;52.922;5.742;2022-07-22T02:28:19;17.80;99.90
57132;DHT22;43005;52.922;5.742;2022-07-22T02:30:47;17.70;99.90
57132;DHT22;43005;52.922;5.742;2022-07-22T02:33:14;17.70;99.90
57132;DHT22;43005;52.922;5.742;2022-07-22T02:35:40;17.70;99.90
57132;DHT22;43005;52.922;5.742;2022-07-22T02:38:07;17.60;99.90
57132;DHT22;43005;52.922;5.742;2022-07-22T02:40:34;17.70;99.90
57132;DHT22;43005;52.922;5.742;2022-07-22T02:43:01;17.60;99.90
57132;DHT22;43005;52.922;5.742;2022-07-22T02:45:28;17.60;99.90
57132;DHT22;43005;52.922;5.742;2022-07-22T02:47:56;17.70;99.90
57132;DHT22;43005;52.922;5.742;2022-07-22T02:50:22;17.70;99.90
57132;DHT22;43005;52.922;5.742;2022-07-22T02:52:49;17.70;99.90
57132;DHT22;43005;52.922;5.742;2022-07-22T02:55:16;17.60;99.90
57132;DHT22;43005;52.922;5.742;2022-07-22T02:57:43;17.60;99.90
57132;DHT22;43005;52.922;5.742;2022-07-22T03:00:11;17.60;99.90
57132;DHT22;43005;52.922;5.742;2022-07-22T03:02:38;17.60;99.90
57132;DHT22;43005;52.922;5.742;2022-07-22T03:05:07;17.60;99.90
57132;DHT22;43005;52.922;5.742;2022-07-22T03:07:34;17.60;99.90
57132;DHT22;43005;52.922;5.742;2022-07-22T03:10:01;17.60;99.90
57132;DHT22;43005;52.922;5.742;2022-07-22T03:12:27;17.60;99.90
57132;DHT22;43005;52.922;5.742;2022-07-22T03:14:54;17.60;99.90
57132;DHT22;43005;52.922;5.742;2022-07-22T03:17:21;17.70;99.90
57132;DHT22;43005;52.922;5.742;2022-07-22T03:19:48;17.60;99.90
57132;DHT22;43005;52.922;5.742;2022-07-22T03:22:16;17.50;99.90
57132;DHT22;43005;52.922;5.742;2022-07-22T03:24:42;17.50;99.90
57132;DHT22;43005;52.922;5.742;2022-07-22T03:27:09;17.40;99.90
57132;DHT22;43005;52.922;5.742;2022-07-22T03:29:36;17.40;99.90
57132;DHT22;43005;52.922;5.742;2022-07-22T03:32:03;17.40;99.90
57132;DHT22;43005;52.922;5.742;2022-07-22T03:34:30;17.40;99.90
57132;DHT22;43005;52.922;5.742;2022-07-22T03:36:56;17.30;99.90
57132;DHT22;43005;52.922;5.742;2022-07-22T03:39:24;17.20;99.90
57132;DHT22;43005;52.922;5.742;2022-07-22T03:41:51;17.30;99.90
57132;DHT22;43005;52.922;5.742;2022-07-22T03:44:18;17.30;99.90
57132;DHT22;43005;52.922;5.742;2022-07-22T03:46:44;17.20;99.90
57132;DHT22;43005;52.922;5.742;2022-07-22T03:49:11;17.30;99.90
57132;DHT22;43005;52.922;5.742;2022-07-22T03:51:38;17.30;99.90
57132;DHT22;43005;52.922;5.742;2022-07-22T03:54:04;17.20;99.90
57132;DHT22;43005;52.922;5.742;2022-07-22T03:56:33;17.20;99.90
57132;DHT22;43005;52.922;5.742;2022-07-22T03:59:00;17.20;99.90
57132;DHT22;43005;52.922;5.742;2022-07-22T04:01:26;17.20;99.90
57132;DHT22;43005;52.922;5.742;2022-07-22T04:03:53;17.30;99.90
57132;DHT22;43005;52.922;5.742;2022-07-22T04:06:20;17.30;99.90
57132;DHT22;43005;52.922;5.742;2022-07-22T04:08:46;17.30;99.90
57132;DHT22;43005;52.922;5.742;2022-07-22T04:11:13;17.30;99.90
57132;DHT22;43005;52.922;5.742;2022-07-22T04:13:42;17.30;99.90
57132;DHT22;43005;52.922;5.742;2022-07-22T04:16:08;17.30;99.90
57132;DHT22;43005;52.922;5.742;2022-07-22T04:18:35;17.40;99.90
57132;DHT22;43005;52.922;5.742;2022-07-22T04:21:02;17.40;99.90
57132;DHT22;43005;52.922;5.742;2022-07-22T04:23:28;17.40;99.90
57132;DHT22;43005;52.922;5.742;2022-07-22T04:25:55;17.40;99.90
57132;DHT22;43005;52.922;5.742;2022-07-22T04:28:22;17.40;99.90
57132;DHT22;43005;52.922;5.742;2022-07-22T04:30:50;17.30;99.90
57132;DHT22;43005;52.922;5.742;2022-07-22T04:33:17;17.30;99.90
57132;DHT22;43005;52.922;5.742;2022-07-22T04:35:43;17.30;99.90
57132;DHT22;43005;52.922;5.742;2022-07-22T04:38:10;17.40;99.90
57132;DHT22;43005;52.922;5.742;2022-07-22T04:40:36;17.40;99.90
57132;DHT22;43005;52.922;5.742;2022-07-22T04:43:03;17.40;99.90
57132;DHT22;43005;52.922;5.742;2022-07-22T04:45:31;17.40;99.90
57132;DHT22;43005;52.922;5.742;2022-07-22T04:47:59;17.50;99.90
57132;DHT22;43005;52.922;5.742;2022-07-22T04:50:25;17.50;99.90
57132;DHT22;43005;52.922;5.742;2022-07-22T04:52:52;17.50;99.90
57132;DHT22;43005;52.922;5.742;2022-07-22T04:55:19;17.60;99.90
57132;DHT22;43005;52.922;5.742;2022-07-22T04:57:45;17.60;99.90
57132;DHT22;43005;52.922;5.742;2022-07-22T05:00:12;17.70;99.90
57132;DHT22;43005;52.922;5.742;2022-07-22T05:02:41;17.70;99.90
57132;DHT22;43005;52.922;5.742;2022-07-22T05:05:09;17.70;99.90
57132;DHT22;43005;52.922;5.742;2022-07-22T05:07:36;17.80;99.90
57132;DHT22;43005;52.922;5.742;2022-07-22T05:10:03;17.80;99.90
57132;DHT22;43005;52.922;5.742;2022-07-22T05:12:30;17.80;99.90
57132;DHT22;43005;52.922;5.742;2022-07-22T05:14:57;17.80;99.90
57132;DHT22;43005;52.922;5.742;2022-07-22T05:17:23;17.90;99.90
57132;DHT22;43005;52.922;5.742;2022-07-22T05:19:50;17.90;99.90
57132;DHT22;43005;52.922;5.742;2022-07-22T05:22:18;17.90;99.90
57132;DHT22;43005;52.922;5.742;2022-07-22T05:24:45;17.90;99.90
57132;DHT22;43005;52.922;5.742;2022-07-22T05:27:11;17.90;99.90
57132;DHT22;43005;52.922;5.742;2022-07-22T05:29:38;17.90;99.90
57132;DHT22;43005;52.922;5.742;2022-07-22T05:32:05;17.90;99.90
57132;DHT22;43005;52.922;5.742;2022-07-22T05:34:32;18.00;99.90
57132;DHT22;43005;52.922;5.742;2022-07-22T05:36:58;18.00;99.90
57132;DHT22;43005;52.922;5.742;2022-07-22T05:39:26;18.10;99.90
57132;DHT22;43005;52.922;5.742;2022-07-22T05:41:53;18.10;99.90
57132;DHT22;43005;52.922;5.742;2022-07-22T05:44:20;18.20;99.90
57132;DHT22;43005;52.922;5.742;2022-07-22T05:46:46;18.20;99.90
57132;DHT22;43005;52.922;5.742;2022-07-22T05:49:13;18.20;99.90
57132;DHT22;43005;52.922;5.742;2022-07-22T05:51:40;18.20;99.90
57132;DHT22;43005;52.922;5.742;2022-07-22T05:54:07;18.30;99.90
57132;DHT22;43005;52.922;5.742;2022-07-22T05:56:35;18.30;99.90
57132;DHT22;43005;52.922;5.742;2022-07-22T05:59:02;18.40;99.90
57132;DHT22;43005;52.922;5.742;2022-07-22T06:01:28;18.50;99.90
57132;DHT22;43005;52.922;5.742;2022-07-22T06:03:55;18.50;99.90
57132;DHT22;43005;52.922;5.742;2022-07-22T06:06:22;18.60;99.90
57132;DHT22;43005;52.922;5.742;2022-07-22T06:08:48;18.70;99.90
57132;DHT22;43005;52.922;5.742;2022-07-22T06:11:15;18.70;99.90
57132;DHT22;43005;52.922;5.742;2022-07-22T06:13:43;18.70;99.90
57132;DHT22;43005;52.922;5.742;2022-07-22T06:16:10;18.80;99.90
57132;DHT22;43005;52.922;5.742;2022-07-22T06:18:37;18.80;99.90
57132;DHT22;43005;52.922;5.742;2022-07-22T06:21:04;18.80;99.90
57132;DHT22;43005;52.922;5.742;2022-07-22T06:23:30;18.90;99.90
57132;DHT22;43005;52.922;5.742;2022-07-22T06:25:57;18.90;99.90
57132;DHT22;43005;52.922;5.742;2022-07-22T06:28:24;19.00;99.90
57132;DHT22;43005;52.922;5.742;2022-07-22T06:30:52;18.90;99.90
57132;DHT22;43005;52.922;5.742;2022-07-22T06:33:19;18.90;99.90
57132;DHT22;43005;52.922;5.742;2022-07-22T06:35:46;19.00;99.90
57132;DHT22;43005;52.922;5.742;2022-07-22T06:38:12;19.00;99.90
57132;DHT22;43005;52.922;5.742;2022-07-22T06:40:39;19.00;99.90
57132;DHT22;43005;52.922;5.742;2022-07-22T06:43:06;19.00;99.90
57132;DHT22;43005;52.922;5.742;2022-07-22T06:45:32;19.00;99.90
57132;DHT22;43005;52.922;5.742;2022-07-22T06:48:00;19.00;99.90
57132;DHT22;43005;52.922;5.742;2022-07-22T06:50:27;19.00;99.90
57132;DHT22;43005;52.922;5.742;2022-07-22T06:52:54;19.00;99.90
57132;DHT22;43005;52.922;5.742;2022-07-22T06:55:21;19.10;99.90
57132;DHT22;43005;52.922;5.742;2022-07-22T06:57:47;19.10;99.90
57132;DHT22;43005;52.922;5.742;2022-07-22T07:00:15;19.10;99.90
57132;DHT22;43005;52.922;5.742;2022-07-22T07:02:42;19.10;99.90
57132;DHT22;43005;52.922;5.742;2022-07-22T07:05:10;19.10;99.90
57132;DHT22;43005;52.922;5.742;2022-07-22T07:07:37;19.20;99.90
57132;DHT22;43005;52.922;5.742;2022-07-22T07:10:04;19.20;99.90
57132;DHT22;43005;52.922;5.742;2022-07-22T07:12:30;19.20;99.90
57132;DHT22;43005;52.922;5.742;2022-07-22T07:14:57;19.30;99.90
57132;DHT22;43005;52.922;5.742;2022-07-22T07:17:24;19.40;99.90
57132;DHT22;43005;52.922;5.742;2022-07-22T07:19:50;19.50;99.90
57132;DHT22;43005;52.922;5.742;2022-07-22T07:22:18;19.60;99.90
57132;DHT22;43005;52.922;5.742;2022-07-22T07:24:45;19.60;99.90
57132;DHT22;43005;52.922;5.742;2022-07-22T07:27:12;19.70;99.90
57132;DHT22;43005;52.922;5.742;2022-07-22T07:29:38;19.80;99.90
57132;DHT22;43005;52.922;5.742;2022-07-22T07:32:05;19.90;99.90
57132;DHT22;43005;52.922;5.742;2022-07-22T07:34:32;20.00;99.90
57132;DHT22;43005;52.922;5.742;2022-07-22T07:36:58;20.10;99.90
57132;DHT22;43005;52.922;5.742;2022-07-22T07:39:27;20.10;99.90
57132;DHT22;43005;52.922;5.742;2022-07-22T07:41:53;20.10;99.90
57132;DHT22;43005;52.922;5.742;2022-07-22T07:44:20;20.10;99.90
57132;DHT22;43005;52.922;5.742;2022-07-22T07:46:46;20.10;99.90
57132;DHT22;43005;52.922;5.742;2022-07-22T07:49:13;20.10;99.90
57132;DHT22;43005;52.922;5.742;2022-07-22T07:51:40;20.00;99.90
57132;DHT22;43005;52.922;5.742;2022-07-22T07:54:07;20.00;99.90
57132;DHT22;43005;52.922;5.742;2022-07-22T07:56:35;20.00;99.90
57132;DHT22;43005;52.922;5.742;2022-07-22T07:59:02;19.90;99.90
57132;DHT22;43005;52.922;5.742;2022-07-22T08:01:28;19.90;99.90
57132;DHT22;43005;52.922;5.742;2022-07-22T08:03:55;19.80;99.90
57132;DHT22;43005;52.922;5.742;2022-07-22T08:06:22;19.70;99.90
57132;DHT22;43005;52.922;5.742;2022-07-22T08:08:49;19.70;99.90
57132;DHT22;43005;52.922;5.742;2022-07-22T08:11:15;19.60;99.90
57132;DHT22;43005;52.922;5.742;2022-07-22T08:13:44;19.60;99.90
57132;DHT22;43005;52.922;5.742;2022-07-22T08:16:10;19.60;99.90
57132;DHT22;43005;52.922;5.742;2022-07-22T08:18:37;19.60;99.90
57132;DHT22;43005;52.922;5.742;2022-07-22T08:21:04;19.60;99.90
57132;DHT22;43005;52.922;5.742;2022-07-22T08:23:30;19.60;99.90
57132;DHT22;43005;52.922;5.742;2022-07-22T08:25:57;19.60;99.90
57132;DHT22;43005;52.922;5.742;2022-07-22T08:28:24;19.50;99.90
57132;DHT22;43005;52.922;5.742;2022-07-22T08:30:52;19.60;99.90
57132;DHT22;43005;52.922;5.742;2022-07-22T08:33:19;19.60;99.90
57132;DHT22;43005;52.922;5.742;2022-07-22T08:35:45;19.60;99.90
57132;DHT22;43005;52.922;5.742;2022-07-22T08:38:12;19.60;99.90
57132;DHT22;43005;52.922;5.742;2022-07-22T08:40:39;19.60;99.90
57132;DHT22;43005;52.922;5.742;2022-07-22T08:43:05;19.60;99.90
57132;DHT22;43005;52.922;5.742;2022-07-22T08:45:32;19.60;99.90
57132;DHT22;43005;52.922;5.742;2022-07-22T08:48:00;19.70;99.90
57132;DHT22;43005;52.922;5.742;2022-07-22T08:50:29;19.70;99.90
57132;DHT22;43005;52.922;5.742;2022-07-22T08:52:55;19.90;99.90
57132;DHT22;43005;52.922;5.742;2022-07-22T08:55:22;19.90;99.90
57132;DHT22;43005;52.922;5.742;2022-07-22T08:57:50;20.00;99.90
57132;DHT22;43005;52.922;5.742;2022-07-22T09:00:18;20.10;99.90
57132;DHT22;43005;52.922;5.742;2022-07-22T09:02:45;20.10;99.90
57132;DHT22;43005;52.922;5.742;2022-07-22T09:05:13;20.10;99.90
57132;DHT22;43005;52.922;5.742;2022-07-22T09:07:41;20.10;99.90
57132;DHT22;43005;52.922;5.742;2022-07-22T09:10:10;20.20;99.90
57132;DHT22;43005;52.922;5.742;2022-07-22T09:12:49;20.30;99.90
57132;DHT22;43005;52.922;5.742;2022-07-22T09:15:23;20.40;99.90
57132;DHT22;43005;52.922;5.742;2022-07-22T09:17:51;20.40;99.90
57132;DHT22;43005;52.922;5.742;2022-07-22T09:20:19;20.60;99.90
57132;DHT22;43005;52.922;5.742;2022-07-22T09:22:46;20.70;99.90
57132;DHT22;43005;52.922;5.742;2022-07-22T09:25:21;20.70;92.50
57132;DHT22;43005;52.922;5.742;2022-07-22T09:27:48;20.60;94.00
57132;DHT22;43005;52.922;5.742;2022-07-22T09:30:16;20.60;96.80
57132;DHT22;43005;52.922;5.742;2022-07-22T09:32:43;20.60;97.30
57132;DHT22;43005;52.922;5.742;2022-07-22T09:35:10;20.50;93.50
57132;DHT22;43005;52.922;5.742;2022-07-22T09:37:42;20.40;95.80
57132;DHT22;43005;52.922;5.742;2022-07-22T09:40:13;20.30;96.20
57132;DHT22;43005;52.922;5.742;2022-07-22T09:42:44;20.40;97.20
57132;DHT22;43005;52.922;5.742;2022-07-22T09:45:11;20.40;97.60
57132;DHT22;43005;52.922;5.742;2022-07-22T09:47:40;20.40;95.30
57132;DHT22;43005;52.922;5.742;2022-07-22T09:50:13;20.50;95.10
57132;DHT22;43005;52.922;5.742;2022-07-22T09:52:41;20.60;93.90
57132;DHT22;43005;52.922;5.742;2022-07-22T09:55:08;20.80;93.70
57132;DHT22;43005;52.922;5.742;2022-07-22T09:57:35;20.80;92.20
57132;DHT22;43005;52.922;5.742;2022-07-22T10:00:03;20.80;94.60
57132;DHT22;43005;52.922;5.742;2022-07-22T10:02:31;21.00;91.20
57132;DHT22;43005;52.922;5.742;2022-07-22T10:04:59;21.10;91.40
57132;DHT22;43005;52.922;5.742;2022-07-22T10:07:26;21.10;92.90
57132;DHT22;43005;52.922;5.742;2022-07-22T10:09:55;21.20;92.10
57132;DHT22;43005;52.922;5.742;2022-07-22T10:12:22;21.30;90.70
57132;DHT22;43005;52.922;5.742;2022-07-22T10:14:49;21.30;91.90
57132;DHT22;43005;52.922;5.742;2022-07-22T10:17:15;21.30;85.90
57132;DHT22;43005;52.922;5.742;2022-07-22T10:19:42;21.10;84.40
57132;DHT22;43005;52.922;5.742;2022-07-22T10:25:00;20.90;85.70
57132;DHT22;43005;52.922;5.742;2022-07-22T10:30:09;20.50;90.80
57132;DHT22;43005;52.922;5.742;2022-07-22T10:32:36;20.40;90.50
57132;DHT22;43005;52.922;5.742;2022-07-22T10:35:22;20.40;90.00
57132;DHT22;43005;52.922;5.742;2022-07-22T10:37:49;20.40;90.90
57132;DHT22;43005;52.922;5.742;2022-07-22T10:40:19;20.50;91.00
57132;DHT22;43005;52.922;5.742;2022-07-22T10:43:02;20.70;88.80
57132;DHT22;43005;52.922;5.742;2022-07-22T10:45:30;20.80;90.90
57132;DHT22;43005;52.922;5.742;2022-07-22T10:47:57;21.10;92.20
57132;DHT22;43005;52.922;5.742;2022-07-22T10:50:44;21.30;90.70
57132;DHT22;43005;52.922;5.742;2022-07-22T10:53:11;21.50;90.30
57132;DHT22;43005;52.922;5.742;2022-07-22T10:55:56;21.80;89.50
57132;DHT22;43005;52.922;5.742;2022-07-22T10:58:43;21.80;81.90
57132;DHT22;43005;52.922;5.742;2022-07-22T11:01:11;21.90;82.60
57132;DHT22;43005;52.922;5.742;2022-07-22T11:03:39;21.90;78.20
57132;DHT22;43005;52.922;5.742;2022-07-22T11:06:16;21.80;77.80
57132;DHT22;43005;52.922;5.742;2022-07-22T11:08:45;21.80;78.10
57132;DHT22;43005;52.922;5.742;2022-07-22T11:11:13;21.80;82.10
57132;DHT22;43005;52.922;5.742;2022-07-22T11:13:40;21.80;78.10
57132;DHT22;43005;52.922;5.742;2022-07-22T11:16:16;21.70;78.20
57132;DHT22;43005;52.922;5.742;2022-07-22T11:18:44;21.80;81.50
57132;DHT22;43005;52.922;5.742;2022-07-22T11:21:10;21.80;80.50
57132;DHT22;43005;52.922;5.742;2022-07-22T11:23:39;21.80;80.00
57132;DHT22;43005;52.922;5.742;2022-07-22T11:26:06;21.80;79.20
57132;DHT22;43005;52.922;5.742;2022-07-22T11:28:39;21.90;76.60
57132;DHT22;43005;52.922;5.742;2022-07-22T11:31:06;21.90;79.10
57132;DHT22;43005;52.922;5.742;2022-07-22T11:33:33;22.00;77.10
57132;DHT22;43005;52.922;5.742;2022-07-22T11:36:00;22.10;79.20
57132;DHT22;43005;52.922;5.742;2022-07-22T11:38:38;22.30;78.00
57132;DHT22;43005;52.922;5.742;2022-07-22T11:41:05;22.30;74.60
57132;DHT22;43005;52.922;5.742;2022-07-22T11:43:37;22.30;74.20
57132;DHT22;43005;52.922;5.742;2022-07-22T11:46:05;22.40;75.90
57132;DHT22;43005;52.922;5.742;2022-07-22T11:48:32;22.50;75.30
57132;DHT22;43005;52.922;5.742;2022-07-22T11:50:59;22.60;74.50
57132;DHT22;43005;52.922;5.742;2022-07-22T11:53:26;22.70;76.20
57132;DHT22;43005;52.922;5.742;2022-07-22T11:55:56;22.70;71.20
57132;DHT22;43005;52.922;5.742;2022-07-22T11:58:33;22.70;71.40
57132;DHT22;43005;52.922;5.742;2022-07-22T12:00:59;22.70;72.00
57132;DHT22;43005;52.922;5.742;2022-07-22T12:03:27;22.70;71.30
57132;DHT22;43005;52.922;5.742;2022-07-22T12:05:54;22.60;69.10
57132;DHT22;43005;52.922;5.742;2022-07-22T12:08:22;22.50;71.30
57132;DHT22;43005;52.922;5.742;2022-07-22T12:10:48;22.60;70.40
57132;DHT22;43005;52.922;5.742;2022-07-22T12:13:15;22.70;71.50
57132;DHT22;43005;52.922;5.742;2022-07-22T12:15:42;22.90;70.60
57132;DHT22;43005;52.922;5.742;2022-07-22T12:18:18;23.10;70.60
57132;DHT22;43005;52.922;5.742;2022-07-22T12:20:47;23.00;66.70
57132;DHT22;43005;52.922;5.742;2022-07-22T12:23:14;22.90;66.90
57132;DHT22;43005;52.922;5.742;2022-07-22T12:25:55;23.00;68.30
57132;DHT22;43005;52.922;5.742;2022-07-22T12:28:22;23.10;69.50
57132;DHT22;43005;52.922;5.742;2022-07-22T12:30:50;23.20;68.10
57132;DHT22;43005;52.922;5.742;2022-07-22T12:33:17;23.30;66.40
57132;DHT22;43005;52.922;5.742;2022-07-22T12:35:44;23.40;66.50
57132;DHT22;43005;52.922;5.742;2022-07-22T12:38:25;23.50;66.10
57132;DHT22;43005;52.922;5.742;2022-07-22T12:40:51;23.50;65.60
57132;DHT22;43005;52.922;5.742;2022-07-22T12:43:21;23.60;67.10
57132;DHT22;43005;52.922;5.742;2022-07-22T12:45:49;23.90;67.30
57132;DHT22;43005;52.922;5.742;2022-07-22T12:48:16;24.10;65.00
57132;DHT22;43005;52.922;5.742;2022-07-22T12:50:51;24.20;64.50
57132;DHT22;43005;52.922;5.742;2022-07-22T12:53:20;24.30;63.10
57132;DHT22;43005;52.922;5.742;2022-07-22T12:55:49;24.30;61.70
57132;DHT22;43005;52.922;5.742;2022-07-22T12:58:17;24.10;61.50
57132;DHT22;43005;52.922;5.742;2022-07-22T13:00:45;24.10;62.80
57132;DHT22;43005;52.922;5.742;2022-07-22T13:03:12;24.10;61.20
57132;DHT22;43005;52.922;5.742;2022-07-22T13:05:39;24.20;61.90
57132;DHT22;43005;52.922;5.742;2022-07-22T13:08:06;24.30;61.60
57132;DHT22;43005;52.922;5.742;2022-07-22T13:10:33;24.30;60.20
57132;DHT22;43005;52.922;5.742;2022-07-22T13:13:01;24.00;59.70
57132;DHT22;43005;52.922;5.742;2022-07-22T13:15:28;24.00;59.70
57132;DHT22;43005;52.922;5.742;2022-07-22T13:17:55;24.00;59.60
57132;DHT22;43005;52.922;5.742;2022-07-22T13:20:21;24.00;59.20
57132;DHT22;43005;52.922;5.742;2022-07-22T13:22:48;24.30;59.30
57132;DHT22;43005;52.922;5.742;2022-07-22T13:25:15;24.30;58.20
57132;DHT22;43005;52.922;5.742;2022-07-22T13:27:42;24.30;56.80
57132;DHT22;43005;52.922;5.742;2022-07-22T13:30:11;24.30;58.60
57132;DHT22;43005;52.922;5.742;2022-07-22T13:32:38;24.60;58.60
57132;DHT22;43005;52.922;5.742;2022-07-22T13:35:05;24.60;55.90
57132;DHT22;43005;52.922;5.742;2022-07-22T13:37:31;24.40;56.90
57132;DHT22;43005;52.922;5.742;2022-07-22T13:40:00;24.70;57.40
57132;DHT22;43005;52.922;5.742;2022-07-22T13:42:27;25.10;56.30
57132;DHT22;43005;52.922;5.742;2022-07-22T13:44:54;25.30;55.70
57132;DHT22;43005;52.922;5.742;2022-07-22T13:47:22;25.40;54.00
57132;DHT22;43005;52.922;5.742;2022-07-22T13:49:48;25.20;52.90
57132;DHT22;43005;52.922;5.742;2022-07-22T13:52:15;25.20;54.50
57132;DHT22;43005;52.922;5.742;2022-07-22T13:54:44;25.10;54.40
57132;DHT22;43005;52.922;5.742;2022-07-22T13:57:11;25.30;53.60
57132;DHT22;43005;52.922;5.742;2022-07-22T13:59:38;25.50;53.10
57132;DHT22;43005;52.922;5.742;2022-07-22T14:02:05;25.50;54.10
57132;DHT22;43005;52.922;5.742;2022-07-22T14:04:33;25.80;53.60
57132;DHT22;43005;52.922;5.742;2022-07-22T14:07:00;25.90;51.40
57132;DHT22;43005;52.922;5.742;2022-07-22T14:09:27;25.70;51.70
57132;DHT22;43005;52.922;5.742;2022-07-22T14:11:54;25.50;52.10
57132;DHT22;43005;52.922;5.742;2022-07-22T14:14:22;25.20;52.40
57132;DHT22;43005;52.922;5.742;2022-07-22T14:16:48;25.20;53.10
57132;DHT22;43005;52.922;5.742;2022-07-22T14:19:15;25.30;52.40
57132;DHT22;43005;52.922;5.742;2022-07-22T14:21:44;25.30;52.60
57132;DHT22;43005;52.922;5.742;2022-07-22T14:24:11;25.40;52.50
57132;DHT22;43005;52.922;5.742;2022-07-22T14:26:38;25.30;52.30
57132;DHT22;43005;52.922;5.742;2022-07-22T14:29:05;25.30;53.80
57132;DHT22;43005;52.922;5.742;2022-07-22T14:31:32;25.20;52.20
57132;DHT22;43005;52.922;5.742;2022-07-22T14:33:59;25.10;51.70
57132;DHT22;43005;52.922;5.742;2022-07-22T14:36:26;25.10;53.30
57132;DHT22;43005;52.922;5.742;2022-07-22T14:38:54;25.10;52.50
57132;DHT22;43005;52.922;5.742;2022-07-22T14:41:21;25.00;52.70
57132;DHT22;43005;52.922;5.742;2022-07-22T14:43:48;24.90;51.40
57132;DHT22;43005;52.922;5.742;2022-07-22T14:46:14;24.60;52.00
57132;DHT22;43005;52.922;5.742;2022-07-22T14:48:41;24.20;54.60
57132;DHT22;43005;52.922;5.742;2022-07-22T14:51:08;23.70;56.70
57132;DHT22;43005;52.922;5.742;2022-07-22T14:53:35;23.60;58.40
57132;DHT22;43005;52.922;5.742;2022-07-22T14:56:03;23.40;59.10
57132;DHT22;43005;52.922;5.742;2022-07-22T14:58:30;23.20;59.80
57132;DHT22;43005;52.922;5.742;2022-07-22T15:00:57;22.90;60.60
57132;DHT22;43005;52.922;5.742;2022-07-22T15:03:23;22.70;61.70
57132;DHT22;43005;52.922;5.742;2022-07-22T15:05:50;22.60;62.50
57132;DHT22;43005;52.922;5.742;2022-07-22T15:08:18;22.50;63.20
57132;DHT22;43005;52.922;5.742;2022-07-22T15:10:44;22.20;63.80
57132;DHT22;43005;52.922;5.742;2022-07-22T15:13:12;22.10;65.00
57132;DHT22;43005;52.922;5.742;2022-07-22T15:15:39;22.10;65.30
57132;DHT22;43005;52.922;5.742;2022-07-22T15:18:06;22.00;64.90
57132;DHT22;43005;52.922;5.742;2022-07-22T15:20:33;22.10;65.50
57132;DHT22;43005;52.922;5.742;2022-07-22T15:23:00;22.10;65.20
57132;DHT22;43005;52.922;5.742;2022-07-22T15:25:27;22.10;65.30
57132;DHT22;43005;52.922;5.742;2022-07-22T15:27:54;22.10;64.60
57132;DHT22;43005;52.922;5.742;2022-07-22T15:30:22;21.90;64.60
57132;DHT22;43005;52.922;5.742;2022-07-22T15:32:49;21.90;65.60
57132;DHT22;43005;52.922;5.742;2022-07-22T15:35:16;22.10;65.30
57132;DHT22;43005;52.922;5.742;2022-07-22T15:37:42;22.10;64.50
57132;DHT22;43005;52.922;5.742;2022-07-22T15:40:09;22.10;64.70
57132;DHT22;43005;52.922;5.742;2022-07-22T15:42:36;22.00;63.90